createdAt,value
2023-03-17T00:00:30.373Z,0.10
2023-03-17T00:03:49.559Z,0.09
2023-03-17T00:07:00.982Z,0.07
2023-03-17T00:10:19.629Z,0.07
2023-03-17T00:13:33.467Z,0.03
2023-03-17T00:16:48.679Z,0.01
2023-03-17T00:20:00.701Z,-0.04
2023-03-17T00:23:18.505Z,-0.19
2023-03-17T00:29:31.759Z,-0.12
2023-03-17T00:32:45.693Z,-0.14
2023-03-17T00:35:59.551Z,-0.21
2023-03-17T00:39:19.432Z,-0.17
2023-03-17T00:42:31.721Z,-0.19
2023-03-17T00:45:44.646Z,-0.22
2023-03-17T00:48:57.013Z,-0.26
2023-03-17T00:52:09.722Z,-0.31
2023-03-17T00:55:22.811Z,-0.35
2023-03-17T00:58:37.673Z,-0.35
2023-03-17T01:01:50.215Z,-0.39
2023-03-17T01:05:06.726Z,-0.40
2023-03-17T01:08:17.920Z,-0.46
2023-03-17T01:11:29.980Z,-0.46
2023-03-17T01:14:42.086Z,-0.50
2023-03-17T01:17:55.996Z,-0.55
2023-03-17T01:21:09.666Z,-0.55
2023-03-17T01:24:21.973Z,-0.52
2023-03-17T01:27:36.585Z,-0.55
2023-03-17T01:30:50.384Z,-0.63
2023-03-17T01:34:04.338Z,-0.63
2023-03-17T01:37:17.253Z,-0.61
2023-03-17T01:40:40.377Z,-0.60
2023-03-17T01:43:55.224Z,-0.71
2023-03-17T01:47:07.248Z,-0.74
2023-03-17T01:50:19.812Z,-0.76
2023-03-17T01:53:32.656Z,-0.71
2023-03-17T01:56:49.231Z,-0.69
2023-03-17T02:00:05.987Z,-0.72
2023-03-17T02:03:20.618Z,-0.75
2023-03-17T02:06:34.926Z,-0.83
2023-03-17T02:09:48.694Z,-0.94
2023-03-17T02:13:05.954Z,-0.90
2023-03-17T02:16:21.995Z,-0.91
2023-03-17T02:19:35.380Z,-0.92
2023-03-17T02:22:47.425Z,-0.91
2023-03-17T02:26:01.108Z,-0.90
2023-03-17T02:29:13.220Z,-1.00
2023-03-17T02:32:26.922Z,-0.97
2023-03-17T02:35:41.612Z,-0.92
2023-03-17T02:38:54.369Z,-0.97
2023-03-17T02:42:07.175Z,-0.97
2023-03-17T02:45:20.747Z,-0.95
2023-03-17T02:48:34.240Z,-0.99
2023-03-17T02:51:46.187Z,-1.01
2023-03-17T02:54:58.647Z,-1.02
2023-03-17T02:58:10.855Z,-1.09
2023-03-17T03:01:23.112Z,-1.14
2023-03-17T03:04:36.204Z,-1.21
2023-03-17T03:07:48.304Z,-1.26
2023-03-17T03:11:02.668Z,-1.31
2023-03-17T03:14:15.951Z,-1.37
2023-03-17T03:17:28.364Z,-1.42
2023-03-17T03:20:40.384Z,-1.38
2023-03-17T03:23:52.511Z,-1.43
2023-03-17T03:27:04.582Z,-1.43
2023-03-17T03:30:20.864Z,-1.49
2023-03-17T03:33:34.012Z,-1.45
2023-03-17T03:36:46.552Z,-1.48
2023-03-17T03:39:59.084Z,-1.50
2023-03-17T03:43:22.300Z,-1.44
2023-03-17T03:46:26.843Z,-1.46
2023-03-17T03:49:38.919Z,-1.48
2023-03-17T03:52:51.202Z,-1.46
2023-03-17T03:56:04.408Z,-1.53
2023-03-17T03:59:16.743Z,-1.50
2023-03-17T04:02:28.669Z,-1.54
2023-03-17T04:05:41.096Z,-1.58
2023-03-17T04:08:53.128Z,-1.54
2023-03-17T04:12:04.991Z,-1.47
2023-03-17T04:15:24.312Z,-1.46
2023-03-17T04:18:36.408Z,-1.47
2023-03-17T04:21:49.009Z,-1.51
2023-03-17T04:25:01.125Z,-1.59
2023-03-17T04:28:14.345Z,-1.63
2023-03-17T04:31:26.884Z,-1.63
2023-03-17T04:34:39.107Z,-1.72
2023-03-17T04:37:51.728Z,-1.83
2023-03-17T04:41:04.106Z,-1.74
2023-03-17T04:44:18.734Z,-1.83
2023-03-17T04:47:31.295Z,-1.84
2023-03-17T04:50:43.326Z,-1.82
2023-03-17T04:53:54.157Z,-1.77
2023-03-17T04:57:09.225Z,-1.74
2023-03-17T05:00:26.964Z,-1.81
2023-03-17T05:03:39.995Z,-1.80
2023-03-17T05:06:52.049Z,-1.79
2023-03-17T05:10:04.321Z,-1.81
2023-03-17T05:13:16.813Z,-1.85
2023-03-17T05:16:29.021Z,-1.83
2023-03-17T05:19:41.437Z,-1.79
2023-03-17T05:22:53.746Z,-1.74
2023-03-17T05:26:06.585Z,-1.81
2023-03-17T05:29:19.391Z,-1.79
2023-03-17T05:32:32.356Z,-1.76
2023-03-17T05:35:44.562Z,-1.77
2023-03-17T05:38:56.833Z,-1.68
2023-03-17T05:42:09.346Z,-1.59
2023-03-17T05:45:22.246Z,-1.56
2023-03-17T05:48:35.173Z,-1.51
2023-03-17T05:51:47.609Z,-1.48
2023-03-17T05:54:59.985Z,-1.33
2023-03-17T05:58:13.129Z,-1.31
2023-03-17T06:01:25.347Z,-1.18
2023-03-17T06:04:38.387Z,-0.80
2023-03-17T06:07:54.931Z,-0.13
2023-03-17T06:11:05.032Z,0.75
2023-03-17T06:14:17.271Z,1.11
2023-03-17T06:17:29.932Z,1.47
2023-03-17T06:20:42.253Z,1.80
2023-03-17T06:23:54.683Z,2.17
2023-03-17T06:27:06.953Z,2.72
2023-03-17T06:30:21.156Z,3.17
2023-03-17T06:33:34.554Z,3.11
2023-03-17T06:36:46.997Z,3.51
2023-03-17T06:40:01.037Z,4.33
2023-03-17T06:43:13.553Z,4.40
2023-03-17T06:46:25.643Z,4.43
2023-03-17T06:49:38.327Z,4.98
2023-03-17T06:52:50.435Z,4.88
2023-03-17T06:56:03.203Z,5.10
2023-03-17T06:59:15.805Z,5.53
2023-03-17T07:02:28.145Z,5.54
2023-03-17T07:05:40.527Z,5.73
2023-03-17T07:08:53.664Z,6.22
2023-03-17T07:12:06.710Z,6.50
2023-03-17T07:15:22.826Z,6.66
2023-03-17T07:18:36.162Z,6.77
2023-03-17T07:21:50.395Z,6.87
2023-03-17T07:25:08.631Z,7.28
2023-03-17T07:28:22.674Z,7.69
2023-03-17T07:31:37.546Z,7.95
2023-03-17T07:34:50.492Z,8.05
2023-03-17T07:38:05.364Z,8.27
2023-03-17T07:41:17.506Z,8.32
2023-03-17T07:44:30.461Z,8.66
2023-03-17T07:47:42.843Z,8.65
2023-03-17T07:50:54.919Z,9.10
2023-03-17T07:54:08.255Z,9.63
2023-03-17T07:57:20.930Z,10.05
2023-03-17T08:00:34.920Z,10.45
2023-03-17T08:03:48.084Z,10.48
2023-03-17T08:07:01.718Z,11.63
2023-03-17T08:10:18.498Z,11.50
2023-03-17T08:13:30.701Z,12.03
2023-03-17T08:16:43.059Z,12.52
2023-03-17T08:19:55.170Z,12.85
2023-03-17T08:23:07.602Z,12.79
2023-03-17T08:26:20.774Z,13.51
2023-03-17T08:29:33.773Z,13.36
2023-03-17T08:32:46.513Z,13.59
2023-03-17T08:35:59.255Z,14.21
2023-03-17T08:39:11.932Z,14.65
2023-03-17T08:42:24.055Z,15.32
2023-03-17T08:45:37.032Z,15.27
2023-03-17T08:48:51.078Z,14.83
2023-03-17T08:52:03.591Z,15.21
2023-03-17T08:55:17.964Z,15.09
2023-03-17T08:58:30.717Z,14.44
2023-03-17T09:01:45.063Z,14.32
2023-03-17T09:04:57.973Z,14.54
2023-03-17T09:08:10.115Z,15.89
2023-03-17T09:11:24.715Z,15.84
2023-03-17T09:14:43.532Z,15.73
2023-03-17T09:17:51.035Z,15.66
2023-03-17T09:21:03.724Z,15.54
2023-03-17T09:24:16.678Z,15.86
2023-03-17T09:27:28.813Z,16.36
2023-03-17T09:30:42.670Z,15.47
2023-03-17T09:33:56.633Z,15.63
2023-03-17T09:37:10.104Z,16.90
2023-03-17T09:40:28.541Z,17.12
2023-03-17T09:43:46.846Z,17.01
2023-03-17T09:47:07.014Z,17.25
2023-03-17T09:50:23.937Z,16.63
2023-03-17T09:53:40.088Z,15.69
2023-03-17T09:56:57.897Z,15.56
2023-03-17T10:00:19.131Z,15.87
2023-03-17T10:03:32.663Z,17.27
2023-03-17T10:06:48.625Z,16.92
2023-03-17T10:10:08.856Z,16.68
2023-03-17T10:13:35.824Z,17.22
2023-03-17T10:16:54.748Z,17.14
2023-03-17T10:20:11.733Z,16.97
2023-03-17T10:23:28.130Z,16.65
2023-03-17T10:26:46.222Z,16.21
2023-03-17T10:29:58.409Z,15.72
2023-03-17T10:33:12.547Z,15.87
2023-03-17T10:36:37.948Z,15.49
2023-03-17T10:39:56.283Z,15.18
2023-03-17T10:43:15.751Z,15.43
2023-03-17T10:46:31.455Z,14.98
2023-03-17T10:49:44.567Z,14.94
2023-03-17T10:53:03.531Z,14.88
2023-03-17T10:56:25.910Z,14.99
2023-03-17T10:59:44.921Z,15.28
2023-03-17T11:03:01.843Z,14.90
2023-03-17T11:06:16.991Z,14.78
2023-03-17T11:09:29.539Z,14.78
2023-03-17T11:12:46.458Z,14.74
2023-03-17T11:16:01.189Z,14.56
2023-03-17T11:19:18.866Z,14.77
2023-03-17T11:22:38.228Z,14.58
2023-03-17T11:25:57.090Z,14.31
2023-03-17T11:29:29.222Z,14.81
2023-03-17T11:32:46.089Z,14.94
2023-03-17T11:36:00.149Z,15.06
2023-03-17T11:39:19.086Z,14.81
2023-03-17T11:42:37.475Z,15.69
2023-03-17T11:45:55.079Z,15.41
2023-03-17T11:49:14.972Z,15.54
2023-03-17T11:52:32.703Z,15.63
2023-03-17T11:55:51.802Z,15.89
2023-03-17T11:59:08.855Z,15.70
2023-03-17T12:02:32.669Z,15.88
2023-03-17T12:05:47.362Z,15.72
2023-03-17T12:09:06.544Z,15.87
2023-03-17T12:12:22.349Z,15.69
2023-03-17T12:15:40.447Z,15.61
2023-03-17T12:19:00.849Z,15.52
2023-03-17T12:22:21.333Z,15.32
2023-03-17T12:25:37.528Z,15.24
2023-03-17T12:28:57.438Z,15.69
2023-03-17T12:32:17.388Z,15.07
2023-03-17T12:35:37.112Z,14.98
2023-03-17T12:38:57.315Z,15.06
2023-03-17T12:42:21.076Z,15.19
2023-03-17T12:45:57.496Z,15.06
2023-03-17T12:49:54.303Z,14.75
2023-03-17T12:53:31.045Z,14.66
2023-03-17T12:56:49.015Z,15.02
2023-03-17T13:00:10.329Z,15.23
2023-03-17T13:03:30.695Z,15.04
2023-03-17T13:06:49.196Z,14.72
2023-03-17T13:10:44.815Z,14.81
2023-03-17T13:14:23.351Z,14.71
2023-03-17T13:17:41.530Z,14.44
2023-03-17T13:21:13.896Z,14.69
2023-03-17T13:24:51.957Z,14.73
2023-03-17T13:28:28.036Z,14.47
2023-03-17T13:31:44.517Z,14.51
2023-03-17T13:34:59.624Z,14.64
2023-03-17T13:38:36.817Z,14.78
2023-03-17T13:42:30.235Z,14.76
2023-03-17T13:45:48.324Z,14.16
2023-03-17T13:49:01.746Z,14.25
2023-03-17T13:52:19.540Z,14.30
2023-03-17T13:55:46.125Z,14.10
2023-03-17T13:59:05.959Z,13.75
2023-03-17T14:02:24.913Z,13.68
2023-03-17T14:05:40.707Z,13.65
2023-03-17T14:08:58.021Z,13.68
2023-03-17T14:12:17.901Z,13.49
2023-03-17T14:15:35.269Z,13.54
2023-03-17T14:18:50.106Z,13.36
2023-03-17T14:22:08.858Z,13.30
2023-03-17T14:25:26.212Z,13.22
2023-03-17T14:28:40.672Z,13.28
2023-03-17T14:32:00.599Z,13.26
2023-03-17T14:35:19.003Z,13.21
2023-03-17T14:38:35.013Z,13.16
2023-03-17T14:41:47.033Z,13.17
2023-03-17T14:45:08.868Z,12.97
2023-03-17T14:48:25.418Z,12.96
2023-03-17T14:51:40.367Z,12.83
2023-03-17T14:54:56.406Z,12.87
2023-03-17T14:58:16.554Z,12.84
2023-03-17T15:01:39.720Z,12.79
2023-03-17T15:05:00.416Z,12.69
2023-03-17T15:08:46.297Z,12.74
2023-03-17T15:12:01.084Z,12.65
2023-03-17T15:15:25.912Z,12.48
2023-03-17T15:18:38.033Z,12.40
2023-03-17T15:21:50.748Z,12.37
2023-03-17T15:25:21.068Z,12.27
2023-03-17T15:28:37.016Z,12.17
2023-03-17T15:31:49.243Z,12.20
2023-03-17T15:35:05.096Z,12.11
2023-03-17T15:38:19.029Z,12.03
2023-03-17T15:41:31.370Z,11.98
2023-03-17T15:44:43.720Z,11.93
2023-03-17T15:47:56.360Z,11.81
2023-03-17T15:51:10.360Z,11.83
2023-03-17T15:54:23.033Z,11.81
2023-03-17T15:57:35.281Z,11.63
2023-03-17T16:00:49.935Z,11.56
2023-03-17T16:04:02.129Z,11.50
2023-03-17T16:07:18.982Z,11.37
2023-03-17T16:10:34.626Z,11.29
2023-03-17T16:13:46.906Z,11.21
2023-03-17T16:16:59.108Z,11.09
2023-03-17T16:20:16.898Z,11.00
2023-03-17T16:23:31.944Z,10.92
2023-03-17T16:26:45.087Z,10.80
2023-03-17T16:29:57.512Z,10.69
2023-03-17T16:33:18.470Z,10.59
2023-03-17T16:36:32.279Z,10.50
2023-03-17T16:39:45.289Z,10.39
2023-03-17T16:42:59.532Z,10.34
2023-03-17T16:46:14.475Z,10.29
2023-03-17T16:49:27.597Z,10.18
2023-03-17T16:52:40.054Z,10.14
2023-03-17T16:55:53.192Z,10.02
2023-03-17T16:59:06.064Z,9.90
2023-03-17T17:02:23.523Z,9.88
2023-03-17T17:05:37.073Z,9.74
2023-03-17T17:08:51.695Z,9.63
2023-03-17T17:12:04.014Z,9.55
2023-03-17T17:15:21.140Z,9.46
2023-03-17T17:18:35.410Z,9.36
2023-03-17T17:21:48.825Z,9.27
2023-03-17T17:25:01.389Z,9.24
2023-03-17T17:28:14.683Z,9.17
2023-03-17T17:31:27.111Z,9.01
2023-03-17T17:34:39.944Z,8.89
2023-03-17T17:37:52.428Z,8.74
2023-03-17T17:41:09.137Z,8.68
2023-03-17T17:44:21.278Z,8.62
2023-03-17T17:47:34.602Z,8.50
2023-03-17T17:50:47.008Z,8.34
2023-03-17T17:53:59.276Z,8.29
2023-03-17T17:57:12.108Z,8.23
2023-03-17T18:00:26.282Z,8.09
2023-03-17T18:03:40.507Z,7.97
2023-03-17T18:06:53.618Z,7.84
2023-03-17T18:10:06.184Z,7.78
2023-03-17T18:13:18.579Z,7.65
2023-03-17T18:16:31.638Z,7.56
2023-03-17T18:19:44.217Z,7.48
2023-03-17T18:22:56.945Z,7.36
2023-03-17T18:26:10.850Z,7.30
2023-03-17T18:29:23.473Z,7.27
2023-03-17T18:32:36.564Z,7.16
2023-03-17T18:35:51.146Z,7.07
2023-03-17T18:39:04.430Z,6.97
2023-03-17T18:42:17.627Z,6.82
2023-03-17T18:45:29.922Z,6.78
2023-03-17T18:48:42.341Z,6.76
2023-03-17T18:51:54.549Z,6.68
2023-03-17T18:55:07.477Z,6.56
2023-03-17T18:58:19.589Z,6.45
2023-03-17T19:01:32.454Z,6.38
2023-03-17T19:04:47.178Z,6.33
2023-03-17T19:07:59.449Z,6.25
2023-03-17T19:11:13.659Z,6.19
2023-03-17T19:14:25.908Z,6.21
2023-03-17T19:17:39.166Z,6.17
2023-03-17T19:20:51.507Z,6.10
2023-03-17T19:24:06.377Z,5.96
2023-03-17T19:27:18.576Z,5.87
2023-03-17T19:30:31.674Z,5.85
2023-03-17T19:33:44.666Z,5.75
2023-03-17T19:36:57.136Z,5.70
2023-03-17T19:40:13.456Z,5.64
2023-03-17T19:43:39.394Z,5.56
2023-03-17T19:46:41.526Z,5.55
2023-03-17T19:49:54.056Z,5.51
2023-03-17T19:53:06.452Z,5.49
2023-03-17T19:56:18.652Z,5.42
2023-03-17T19:59:31.183Z,5.36
2023-03-17T20:02:43.588Z,5.31
2023-03-17T20:05:57.542Z,5.34
2023-03-17T20:09:10.748Z,5.24
2023-03-17T20:12:22.901Z,5.20
2023-03-17T20:15:35.531Z,5.10
2023-03-17T20:18:47.902Z,5.07
2023-03-17T20:22:00.527Z,4.90
2023-03-17T20:25:15.649Z,4.84
2023-03-17T20:28:30.073Z,4.80
2023-03-17T20:31:43.879Z,4.77
2023-03-17T20:34:57.114Z,4.77
2023-03-17T20:38:10.086Z,4.72
2023-03-17T20:41:24.793Z,4.69
2023-03-17T20:44:36.930Z,4.66
2023-03-17T20:47:49.419Z,4.63
2023-03-17T20:51:04.042Z,4.51
2023-03-17T20:54:17.960Z,4.47
2023-03-17T20:57:30.447Z,4.42
2023-03-17T21:00:43.067Z,4.24
2023-03-17T21:03:56.628Z,4.13
2023-03-17T21:07:09.148Z,4.04
2023-03-17T21:10:22.619Z,3.95
2023-03-17T21:13:35.412Z,3.87
2023-03-17T21:16:48.556Z,3.88
2023-03-17T21:20:00.915Z,3.83
2023-03-17T21:23:13.443Z,3.81
2023-03-17T21:26:26.350Z,3.69
2023-03-17T21:29:40.508Z,3.66
2023-03-17T21:32:53.767Z,3.62
2023-03-17T21:36:06.645Z,3.62
2023-03-17T21:39:21.332Z,3.65
2023-03-17T21:42:33.844Z,3.68
2023-03-17T21:45:46.893Z,3.67
2023-03-17T21:48:59.400Z,3.69
2023-03-17T21:52:12.704Z,3.59
2023-03-17T21:55:25.474Z,3.46
2023-03-17T21:58:37.694Z,3.37
2023-03-17T22:01:52.205Z,3.24
2023-03-17T22:05:04.719Z,3.15
2023-03-17T22:08:17.034Z,3.05
2023-03-17T22:11:29.529Z,2.97
2023-03-17T22:14:42.203Z,2.95
2023-03-17T22:17:54.474Z,3.01
2023-03-17T22:21:08.242Z,2.94
2023-03-17T22:24:21.484Z,2.82
2023-03-17T22:27:33.702Z,2.74
2023-03-17T22:30:46.358Z,2.77
2023-03-17T22:34:02.241Z,2.84
2023-03-17T22:37:18.444Z,2.83
2023-03-17T22:40:33.071Z,2.73
2023-03-17T22:43:46.833Z,2.69
2023-03-17T22:46:59.359Z,2.69
2023-03-17T22:50:13.503Z,2.64
2023-03-17T22:53:25.769Z,2.64
2023-03-17T22:56:37.938Z,2.57
2023-03-17T22:59:52.058Z,2.46
2023-03-17T23:03:04.098Z,2.43
2023-03-17T23:06:19.582Z,2.42
2023-03-17T23:09:31.741Z,2.33
2023-03-17T23:12:44.004Z,2.32
2023-03-17T23:15:56.561Z,2.27
2023-03-17T23:19:08.738Z,2.29
2023-03-17T23:22:21.617Z,2.27
2023-03-17T23:25:34.043Z,2.30
2023-03-17T23:28:46.557Z,2.23
2023-03-17T23:31:58.825Z,2.14
2023-03-17T23:35:12.724Z,2.08
2023-03-17T23:38:25.834Z,2.10
2023-03-17T23:41:37.901Z,2.05
2023-03-17T23:44:50.453Z,2.04
2023-03-17T23:48:03.178Z,2.07
2023-03-17T23:51:16.275Z,2.02
2023-03-17T23:54:28.848Z,1.86
2023-03-17T23:57:41.624Z,1.84
